Time;durP1;ratioP1;P1;durP2;ratioP2;P2;SDS_P1;SDS_P2;PMS_P1;PMS_P2;Temp;Humidity;BMP_temperature;BMP_pressure;BME280_temperature;BME280_humidity;BME280_pressure;Samples;Min_cycle;Max_cycle;Signal;HPM_P1;HPM_P2
2022/01/09 00:01:15;;;;;;;27.20;16.27;;;;;;;4.20;67.93;99505.13;5093098;28;20387;-54
2022/01/09 00:03:40;;;;;;;83.20;31.35;;;;;;;4.20;68.02;99494.72;5090652;28;20430;-55
2022/01/09 00:06:05;;;;;;;66.75;26.83;;;;;;;4.18;67.83;99506.88;5076141;28;20463;-51
2022/01/09 00:08:31;;;;;;;38.03;18.58;;;;;;;4.08;68.18;99494.84;5075105;28;20036;-51
2022/01/09 00:10:56;;;;;;;29.85;16.33;;;;;;;4.07;68.35;99492.25;5074803;28;20032;-54
2022/01/09 00:13:22;;;;;;;27.52;15.32;;;;;;;4.09;68.39;99490.50;5074955;28;20040;-53
2022/01/09 00:15:47;;;;;;;33.58;15.48;;;;;;;4.14;68.37;99483.53;5075059;28;20140;-53
2022/01/09 00:18:13;;;;;;;51.40;21.00;;;;;;;4.16;68.35;99484.38;5083062;28;20036;-51
2022/01/09 00:20:38;;;;;;;44.88;20.75;;;;;;;4.19;68.28;99486.97;5095177;28;20028;-50
2022/01/09 00:23:04;;;;;;;33.92;16.58;;;;;;;4.24;68.33;99489.50;5094439;28;20040;-51
2022/01/09 00:25:30;;;;;;;49.53;21.15;;;;;;;4.24;68.18;99484.31;5092478;28;20063;-53
2022/01/09 00:27:55;;;;;;;51.58;23.67;;;;;;;4.25;68.17;99480.81;5093601;28;20032;-54
2022/01/09 00:30:23;;;;;;;32.08;17.70;;;;;;;4.27;68.07;99481.66;5095173;28;20052;-53
2022/01/09 00:32:49;;;;;;;27.60;15.45;;;;;;;4.30;68.07;99479.03;5094436;28;20040;-55
2022/01/09 00:35:15;;;;;;;31.33;17.52;;;;;;;4.27;67.98;99477.34;5094244;28;20041;-52
2022/01/09 00:37:41;;;;;;;31.73;16.48;;;;;;;4.31;68.09;99470.34;5093172;28;20494;-54
2022/01/09 00:40:09;;;;;;;32.38;16.98;;;;;;;4.31;68.15;99472.94;5093590;28;20040;-54
2022/01/09 00:42:34;;;;;;;43.30;19.80;;;;;;;4.30;68.11;99472.09;5093439;28;20078;-54
2022/01/09 00:45:00;;;;;;;36.40;17.45;;;;;;;4.23;68.26;99470.44;5093225;28;20070;-54
2022/01/09 00:47:25;;;;;;;37.83;17.75;;;;;;;4.22;68.31;99473.06;5075374;28;20101;-54
2022/01/09 00:49:51;;;;;;;29.63;16.90;;;;;;;4.12;68.50;99467.94;5074496;28;20062;-53
2022/01/09 00:52:16;;;;;;;34.42;17.08;;;;;;;4.11;68.45;99465.34;5089788;28;20043;-55
2022/01/09 00:54:42;;;;;;;37.15;18.52;;;;;;;4.05;68.65;99466.28;5093125;28;20040;-53
2022/01/09 00:57:07;;;;;;;38.95;19.23;;;;;;;3.96;68.88;99453.38;5091876;28;20036;-57
2022/01/09 00:59:33;;;;;;;32.47;16.63;;;;;;;3.89;69.14;99460.38;5084095;28;20036;-54
2022/01/09 01:01:58;;;;;;;31.75;16.35;;;;;;;3.83;69.37;99460.44;5093167;28;20100;-51
2022/01/09 01:04:24;;;;;;;36.03;19.10;;;;;;;3.75;69.53;99449.25;5094233;28;20388;-53
2022/01/09 01:06:51;;;;;;;23.92;14.60;;;;;;;3.66;69.81;99455.38;5094431;28;20467;-54
2022/01/09 01:09:16;;;;;;;25.77;15.38;;;;;;;3.46;70.26;99450.31;5092960;28;20040;-51
2022/01/09 01:11:42;;;;;;;33.25;18.10;;;;;;;3.32;70.51;99452.19;5094076;28;20113;-53
2022/01/09 01:14:08;;;;;;;28.13;16.45;;;;;;;3.07;71.05;99448.91;5094405;28;20039;-51
2022/01/09 01:16:33;;;;;;;24.80;15.32;;;;;;;2.81;72.20;99446.44;5093441;28;20032;-54
2022/01/09 01:19:00;;;;;;;25.40;15.68;;;;;;;2.60;72.82;99439.63;5094010;28;20387;-54
2022/01/09 01:21:26;;;;;;;23.02;14.80;;;;;;;2.42;73.45;99440.53;5075639;28;20054;-54
2022/01/09 01:23:52;;;;;;;29.52;18.55;;;;;;;2.17;73.97;99431.13;5093973;28;20383;-54
2022/01/09 01:26:17;;;;;;;36.75;20.77;;;;;;;1.96;74.74;99432.06;5093044;28;20115;-52
2022/01/09 01:28:43;;;;;;;31.33;17.88;;;;;;;1.80;75.82;99427.78;5075840;28;20135;-53
2022/01/09 01:31:10;;;;;;;26.08;16.33;;;;;;;1.70;76.48;99438.13;5093967;28;20415;-50
2022/01/09 01:33:36;;;;;;;24.30;15.00;;;;;;;1.60;76.97;99425.19;5091195;28;20101;-52
2022/01/09 01:36:02;;;;;;;20.27;13.52;;;;;;;1.56;77.69;99429.50;5093797;28;20028;-52
2022/01/09 01:38:27;;;;;;;17.33;12.27;;;;;;;1.51;78.17;99426.03;5077633;28;20037;-51
2022/01/09 01:40:53;;;;;;;21.25;13.70;;;;;;;1.52;78.68;99432.06;5073650;28;20601;-53
2022/01/09 01:43:18;;;;;;;21.27;14.65;;;;;;;1.54;79.22;99436.41;5073753;28;20032;-53
2022/01/09 01:45:44;;;;;;;19.90;13.45;;;;;;;1.69;78.77;99439.00;5071827;28;20119;-52
2022/01/09 01:48:10;;;;;;;20.80;14.60;;;;;;;1.89;78.49;99438.09;5076865;28;20047;-54
2022/01/09 01:50:38;;;;;;;22.98;16.30;;;;;;;2.06;77.75;99436.34;5079139;28;20036;-51
2022/01/09 01:53:06;;;;;;;25.40;16.13;;;;;;;2.22;76.88;99430.25;5079978;28;20032;-53
2022/01/09 01:55:36;;;;;;;24.88;16.15;;;;;;;2.40;76.20;99425.88;5080756;28;20036;-52
2022/01/09 01:58:06;;;;;;;25.25;16.38;;;;;;;2.53;75.60;99419.75;5086888;28;20034;-51
2022/01/09 02:00:32;;;;;;;23.33;16.67;;;;;;;2.60;75.08;99434.44;5100543;28;20058;-50
2022/01/09 02:02:58;;;;;;;24.13;15.68;;;;;;;2.64;74.89;99430.97;5100192;28;20031;-52
2022/01/09 02:05:24;;;;;;;21.77;14.50;;;;;;;2.74;74.55;99428.31;5096986;28;20040;-53
2022/01/09 02:07:51;;;;;;;25.85;16.77;;;;;;;2.78;73.97;99423.09;5078716;28;20387;-52
2022/01/09 02:10:17;;;;;;;25.88;16.95;;;;;;;2.81;73.91;99415.31;5080153;28;20398;-54
2022/01/09 02:12:43;;;;;;;27.10;17.48;;;;;;;2.89;73.76;99423.03;5079989;28;20115;-51
2022/01/09 02:15:43;;;;;;;25.92;16.17;;;;;;;2.86;73.63;99426.50;5080229;28;20064;-54
2022/01/09 02:18:13;;;;;;;30.27;17.80;;;;;;;2.85;73.47;99423.94;5055468;28;20050;-55
2022/01/09 02:20:39;;;;;;;31.40;18.75;;;;;;;2.82;73.51;99419.63;5087564;28;20157;-55
2022/01/09 02:23:07;;;;;;;25.85;16.38;;;;;;;2.88;73.43;99418.72;5079466;28;20040;-54
2022/01/09 02:25:34;;;;;;;28.88;18.60;;;;;;;2.79;73.67;99426.53;5080140;28;20377;-53
2022/01/09 02:28:00;;;;;;;30.45;17.92;;;;;;;2.79;73.50;99429.13;5078701;28;20049;-54
2022/01/09 02:30:26;;;;;;;26.83;16.35;;;;;;;2.68;73.43;99422.28;5079819;28;20047;-51
2022/01/09 02:32:51;;;;;;;29.20;17.27;;;;;;;2.53;73.68;99431.88;5080124;28;20036;-52
2022/01/09 02:35:17;;;;;;;28.15;18.95;;;;;;;2.31;74.71;99428.47;5080701;28;20387;-55
2022/01/09 02:37:42;;;;;;;27.98;17.40;;;;;;;2.24;75.42;99421.63;5078526;28;20028;-51
2022/01/09 02:40:08;;;;;;;27.17;16.38;;;;;;;2.30;75.65;99413.81;5079664;28;20086;-53
2022/01/09 02:42:34;;;;;;;28.67;18.90;;;;;;;2.38;75.48;99412.03;5099341;28;20024;-54
2022/01/09 02:44:59;;;;;;;38.38;21.63;;;;;;;2.45;75.11;99411.16;5099989;28;20036;-55
2022/01/09 02:47:29;;;;;;;34.55;19.77;;;;;;;2.49;74.99;99405.09;5098952;28;20448;-55
2022/01/09 02:49:55;;;;;;;34.08;19.20;;;;;;;2.54;74.75;99408.50;5100377;28;20060;-56
2022/01/09 02:52:35;;;;;;;38.05;20.70;;;;;;;2.58;74.72;99407.63;5080039;28;20032;-54
2022/01/09 02:55:14;;;;;;;39.58;23.98;;;;;;;2.68;74.51;99408.47;5079706;28;20033;-56
2022/01/09 02:57:41;;;;;;;36.38;21.95;;;;;;;2.79;74.24;99403.19;5083150;28;20119;-52
2022/01/09 03:00:13;;;;;;;36.38;21.35;;;;;;;2.83;73.93;99410.09;5095907;28;20573;-55
2022/01/09 03:02:39;;;;;;;36.80;21.50;;;;;;;2.87;73.91;99404.00;5096822;28;20047;-55
2022/01/09 03:05:05;;;;;;;38.08;23.08;;;;;;;2.92;73.56;99397.09;5094953;28;20327;-53
2022/01/09 03:07:30;;;;;;;42.53;23.92;;;;;;;2.94;73.45;99397.91;5096727;28;20036;-55
2022/01/09 03:09:56;;;;;;;36.03;21.17;;;;;;;3.02;73.38;99401.31;5095447;28;20031;-54
2022/01/09 03:12:22;;;;;;;35.67;21.40;;;;;;;3.07;73.27;99394.38;5095889;28;20360;-54
2022/01/09 03:14:48;;;;;;;37.97;22.42;;;;;;;3.11;72.97;99387.41;5078130;28;20048;-56
2022/01/09 03:17:14;;;;;;;35.13;21.52;;;;;;;3.12;72.86;99390.03;5089219;28;20070;-55
2022/01/09 03:19:39;;;;;;;40.05;23.15;;;;;;;3.18;72.75;99389.97;5076311;28;20048;-55
2022/01/09 03:22:04;;;;;;;42.47;22.60;;;;;;;3.21;72.50;99389.09;5076003;28;20028;-55
2022/01/09 03:24:30;;;;;;;33.35;20.20;;;;;;;3.19;72.51;99385.63;5079753;28;20119;-54
2022/01/09 03:26:55;;;;;;;35.83;20.20;;;;;;;3.19;72.64;99376.13;5081449;28;20496;-55
2022/01/09 03:29:21;;;;;;;39.90;23.13;;;;;;;3.18;72.61;99376.97;5074736;28;20054;-55
2022/01/09 03:31:46;;;;;;;38.00;21.58;;;;;;;3.22;72.56;99370.88;5075901;28;20041;-53
2022/01/09 03:34:11;;;;;;;42.25;22.83;;;;;;;3.22;72.54;99377.81;5076796;28;20514;-55
2022/01/09 03:36:37;;;;;;;43.15;21.38;;;;;;;3.21;72.75;99369.16;5095743;28;20047;-54
2022/01/09 03:39:02;;;;;;;39.90;19.50;;;;;;;3.24;72.56;99376.09;5095986;28;20040;-53
2022/01/09 03:41:28;;;;;;;34.13;19.25;;;;;;;3.30;72.54;99365.63;5092820;28;20028;-54
2022/01/09 03:43:53;;;;;;;37.45;21.13;;;;;;;3.34;72.14;99366.47;5075984;28;20051;-54
2022/01/09 03:46:18;;;;;;;35.28;20.38;;;;;;;3.34;72.12;99363.88;5075400;28;20033;-52
2022/01/09 03:48:44;;;;;;;32.88;19.58;;;;;;;3.37;72.23;99361.25;5079722;28;20451;-51
2022/01/09 03:51:10;;;;;;;29.15;18.15;;;;;;;3.32;72.35;99342.28;5095087;28;20551;-53
2022/01/09 03:53:37;;;;;;;28.85;17.45;;;;;;;3.33;72.01;99344.00;5095731;28;20036;-54
2022/01/09 03:56:03;;;;;;;27.42;16.98;;;;;;;3.35;72.08;99343.13;5086964;28;20058;-53
2022/01/09 03:58:28;;;;;;;30.45;17.50;;;;;;;3.39;71.99;99359.50;5095850;28;20137;-53
2022/01/09 04:00:53;;;;;;;29.63;18.33;;;;;;;3.39;71.96;99350.00;5082227;28;20459;-55
2022/01/09 04:03:19;;;;;;;29.60;17.92;;;;;;;3.40;72.01;99350.84;5075026;28;20037;-54
2022/01/09 04:05:44;;;;;;;30.67;17.63;;;;;;;3.42;71.97;99341.28;5076740;28;20024;-54
2022/01/09 04:08:11;;;;;;;30.40;17.77;;;;;;;3.44;71.75;99343.00;5095284;28;20083;-53
2022/01/09 04:10:41;;;;;;;24.42;15.75;;;;;;;3.49;71.65;99342.13;5091631;28;20032;-54
2022/01/09 04:13:07;;;;;;;28.45;16.35;;;;;;;3.47;71.64;99342.09;5095394;28;20111;-52
2022/01/09 04:15:33;;;;;;;29.42;18.08;;;;;;;3.43;71.61;99345.59;5095350;28;20475;-51
2022/01/09 04:17:59;;;;;;;30.73;19.23;;;;;;;3.37;71.79;99356.06;5094225;28;20119;-51
2022/01/09 04:20:27;;;;;;;27.10;16.70;;;;;;;3.45;71.88;99349.06;5095221;28;20028;-53
2022/01/09 04:22:53;;;;;;;27.95;17.58;;;;;;;3.49;71.72;99344.72;5093423;28;20024;-54
2022/01/09 04:25:19;;;;;;;29.75;17.75;;;;;;;3.49;71.49;99339.50;5095098;28;20085;-54
2022/01/09 04:27:46;;;;;;;28.35;17.63;;;;;;;3.45;71.59;99338.69;5095337;28;20467;-51
2022/01/09 04:30:11;;;;;;;25.27;15.15;;;;;;;3.41;71.70;99342.19;5094382;28;20040;-54
2022/01/09 04:32:38;;;;;;;24.00;15.27;;;;;;;3.33;72.03;99336.19;5095193;28;20380;-53
2022/01/09 04:35:04;;;;;;;24.95;14.55;;;;;;;3.25;72.24;99331.06;5085412;28;20522;-53
2022/01/09 04:37:30;;;;;;;23.95;13.98;;;;;;;3.30;72.15;99336.22;5074441;28;20041;-53
2022/01/09 04:39:56;;;;;;;22.08;13.63;;;;;;;3.34;72.15;99336.16;5074563;28;20024;-54
2022/01/09 04:42:27;;;;;;;23.23;14.18;;;;;;;3.30;72.21;99329.28;5074705;28;20487;-54
2022/01/09 04:44:53;;;;;;;23.98;14.25;;;;;;;3.33;72.25;99323.22;5076248;28;20039;-55
2022/01/09 04:47:19;;;;;;;23.17;13.77;;;;;;;3.30;71.96;99328.44;5094891;28;20028;-55
2022/01/09 04:49:46;;;;;;;20.10;12.25;;;;;;;3.32;71.75;99329.28;5080975;28;20029;-54
2022/01/09 04:52:17;;;;;;;24.60;14.20;;;;;;;3.28;71.72;99335.38;5091703;28;20047;-52
2022/01/09 04:54:42;;;;;;;38.22;20.63;;;;;;;3.28;71.63;99325.00;5093868;28;20024;-56
2022/01/09 04:57:07;;;;;;;36.70;18.92;;;;;;;3.23;71.49;99317.22;5077094;28;20037;-55
2022/01/09 04:59:33;;;;;;;36.95;20.00;;;;;;;3.19;71.73;99315.53;5087601;28;20037;-55
2022/01/09 05:01:58;;;;;;;33.38;19.10;;;;;;;3.19;71.79;99321.63;5082904;28;20035;-56
2022/01/09 05:04:24;;;;;;;26.17;15.50;;;;;;;3.17;71.91;99317.28;5083831;28;20042;-53
2022/01/09 05:06:49;;;;;;;28.25;14.75;;;;;;;3.17;71.81;99318.16;5074565;28;20488;-54
2022/01/09 05:09:15;;;;;;;27.88;15.52;;;;;;;3.16;72.04;99318.19;5074070;28;20036;-56
2022/01/09 05:11:40;;;;;;;28.10;15.38;;;;;;;3.18;72.00;99312.09;5074086;28;20391;-55
2022/01/09 05:14:05;;;;;;;28.38;16.50;;;;;;;3.21;71.92;99312.06;5089676;28;20044;-55
2022/01/09 05:16:31;;;;;;;30.42;17.60;;;;;;;3.20;71.97;99319.88;5094039;28;20035;-55
2022/01/09 05:19:06;;;;;;;28.85;16.98;;;;;;;3.19;71.85;99316.41;5094154;28;20039;-56
2022/01/09 05:21:31;;;;;;;28.45;16.67;;;;;;;3.18;71.81;99317.28;5074319;28;20124;-53
2022/01/09 05:23:57;;;;;;;30.15;17.40;;;;;;;3.19;72.06;99312.94;5073627;28;20119;-54
2022/01/09 05:26:22;;;;;;;31.63;17.73;;;;;;;3.25;71.83;99314.63;5074912;28;20045;-56
2022/01/09 05:28:47;;;;;;;34.90;19.42;;;;;;;3.23;71.83;99319.81;5094148;28;20028;-56
2022/01/09 05:31:13;;;;;;;31.00;17.23;;;;;;;3.19;71.98;99311.22;5092490;28;20082;-55
2022/01/09 05:33:39;;;;;;;31.85;16.65;;;;;;;3.18;72.02;99313.81;5092527;28;20425;-55
2022/01/09 05:36:05;;;;;;;26.90;15.32;;;;;;;3.19;72.02;99315.53;5093400;28;20143;-54
2022/01/09 05:38:31;;;;;;;29.80;16.27;;;;;;;3.08;71.95;99307.84;5074250;28;20039;-56
2022/01/09 05:40:56;;;;;;;28.27;16.75;;;;;;;3.13;72.15;99318.19;5081111;28;20036;-55
2022/01/09 05:43:22;;;;;;;26.73;15.18;;;;;;;3.09;72.20;99314.75;5091331;28;20387;-54
2022/01/09 05:45:48;;;;;;;35.65;19.38;;;;;;;3.10;72.27;99303.50;5094050;28;20036;-56
2022/01/09 05:48:13;;;;;;;28.98;15.80;;;;;;;3.13;72.28;99313.88;5093543;28;20032;-55
2022/01/09 05:50:39;;;;;;;28.95;16.42;;;;;;;3.17;72.38;99307.78;5083227;28;20028;-53
2022/01/09 05:53:04;;;;;;;29.58;17.10;;;;;;;3.20;72.07;99312.94;5093286;28;20033;-56
2022/01/09 05:55:30;;;;;;;33.08;17.15;;;;;;;3.18;72.00;99322.47;5093969;28;20364;-55
2022/01/09 05:57:56;;;;;;;26.30;16.08;;;;;;;3.19;71.90;99316.41;5093282;28;20035;-54
2022/01/09 06:00:21;;;;;;;28.17;16.52;;;;;;;3.18;71.99;99329.41;5093814;28;20032;-52
2022/01/09 06:02:47;;;;;;;31.77;16.95;;;;;;;3.19;71.85;99339.78;5084382;28;20094;-55
2022/01/09 06:05:13;;;;;;;36.05;20.00;;;;;;;3.18;71.68;99335.44;5078383;28;20056;-54
2022/01/09 06:07:39;;;;;;;29.42;17.38;;;;;;;3.14;72.01;99328.56;5073487;28;20408;-52
2022/01/09 06:10:06;;;;;;;28.45;16.60;;;;;;;3.15;72.12;99329.41;5073460;28;20035;-56
2022/01/09 06:12:31;;;;;;;31.25;18.77;;;;;;;3.15;71.85;99330.31;5083281;28;20479;-56
2022/01/09 06:14:57;;;;;;;30.67;18.50;;;;;;;3.14;71.83;99328.56;5091956;28;20089;-56
2022/01/09 06:17:22;;;;;;;26.58;16.00;;;;;;;3.20;71.87;99333.72;5073450;28;20115;-54
2022/01/09 06:19:48;;;;;;;26.92;15.93;;;;;;;3.23;71.79;99330.22;5073199;28;20361;-56
2022/01/09 06:22:18;;;;;;;26.35;15.73;;;;;;;3.26;71.63;99331.94;5073080;28;20033;-53
2022/01/09 06:24:46;;;;;;;29.25;16.15;;;;;;;3.31;71.45;99340.53;5073100;28;20029;-55
2022/01/09 06:27:11;;;;;;;28.48;16.88;;;;;;;3.34;71.42;99343.09;5074308;28;20446;-54
2022/01/09 06:29:37;;;;;;;28.88;18.48;;;;;;;3.30;71.38;99338.81;5073417;28;20040;-56
2022/01/09 06:32:02;;;;;;;27.38;16.90;;;;;;;3.32;71.24;99332.75;5073797;28;20448;-54
2022/01/09 06:34:27;;;;;;;33.05;19.23;;;;;;;3.33;71.26;99339.66;5081934;28;20044;-55
2022/01/09 06:36:53;;;;;;;29.67;17.92;;;;;;;3.32;71.21;99343.13;5097146;28;20062;-52
2022/01/09 06:39:18;;;;;;;25.80;16.13;;;;;;;3.28;71.10;99340.59;5097009;28;20062;-55
2022/01/09 06:41:44;;;;;;;30.27;19.02;;;;;;;3.25;71.00;99356.19;5083300;28;20036;-54
2022/01/09 06:44:09;;;;;;;29.92;17.83;;;;;;;3.25;71.19;99350.97;5076821;28;20120;-55
2022/01/09 06:46:34;;;;;;;35.13;19.92;;;;;;;3.17;71.29;99359.69;5076505;28;20036;-55
2022/01/09 06:49:00;;;;;;;26.20;16.83;;;;;;;3.20;71.06;99364.00;5076409;28;20056;-54
2022/01/09 06:51:25;;;;;;;28.92;19.02;;;;;;;3.12;71.00;99358.88;5076415;28;20051;-53
2022/01/09 06:53:51;;;;;;;30.35;18.25;;;;;;;3.10;70.88;99357.16;5076825;28;20123;-56
2022/01/09 06:56:16;;;;;;;29.00;17.45;;;;;;;3.06;70.88;99360.63;5076359;28;20029;-55
2022/01/09 06:58:41;;;;;;;34.08;20.02;;;;;;;3.01;71.05;99367.59;5077765;28;20127;-56
2022/01/09 07:01:07;;;;;;;32.40;18.98;;;;;;;3.06;71.20;99379.66;5074081;28;20033;-53
2022/01/09 07:03:33;;;;;;;31.95;19.80;;;;;;;3.04;70.97;99377.97;5076167;28;20030;-56
2022/01/09 07:05:58;;;;;;;34.35;20.60;;;;;;;3.01;70.92;99378.84;5075833;28;20041;-54
2022/01/09 07:08:23;;;;;;;29.95;18.55;;;;;;;2.98;70.75;99378.84;5076980;28;20407;-52
2022/01/09 07:10:49;;;;;;;29.13;19.10;;;;;;;2.87;70.75;99388.44;5095326;28;20064;-54
2022/01/09 07:13:15;;;;;;;28.15;19.20;;;;;;;2.67;70.89;99383.38;5079422;28;20040;-54
2022/01/09 07:15:41;;;;;;;29.30;18.95;;;;;;;2.49;70.96;99384.34;5076151;28;20032;-52
2022/01/09 07:18:06;;;;;;;27.73;17.38;;;;;;;2.30;71.65;99380.97;5075951;28;20486;-55
2022/01/09 07:20:32;;;;;;;29.42;18.42;;;;;;;2.08;72.03;99382.78;5094963;28;20032;-56
2022/01/09 07:22:57;;;;;;;29.42;18.05;;;;;;;1.88;72.39;99395.81;5082321;28;20041;-53
2022/01/09 07:25:23;;;;;;;31.80;19.08;;;;;;;1.76;73.04;99410.50;5082067;28;20063;-54
2022/01/09 07:27:48;;;;;;;29.05;18.00;;;;;;;1.63;72.87;99400.13;5095451;28;20482;-54
2022/01/09 07:30:14;;;;;;;28.60;17.08;;;;;;;1.57;72.63;99399.31;5090327;28;20036;-55
2022/01/09 07:32:40;;;;;;;26.52;17.80;;;;;;;1.48;72.68;99397.59;5082737;28;20036;-57
2022/01/09 07:35:06;;;;;;;30.52;19.02;;;;;;;1.40;72.49;99405.34;5092849;28;20055;-54
2022/01/09 07:37:33;;;;;;;25.30;16.80;;;;;;;1.34;72.50;99407.94;5090702;28;20427;-54
2022/01/09 07:39:59;;;;;;;26.20;17.58;;;;;;;1.29;72.48;99409.66;5083673;28;20488;-54
2022/01/09 07:42:24;;;;;;;22.70;15.98;;;;;;;1.25;72.40;99410.53;5075402;28;20502;-54
2022/01/09 07:44:50;;;;;;;24.65;16.73;;;;;;;1.23;72.26;99414.81;5077180;28;20502;-55
2022/01/09 07:47:15;;;;;;;29.48;17.98;;;;;;;1.23;72.42;99415.69;5095682;28;20028;-52
2022/01/09 07:49:41;;;;;;;23.30;15.30;;;;;;;1.14;72.23;99410.50;5093804;28;20032;-54
2022/01/09 07:52:07;;;;;;;30.38;18.27;;;;;;;1.12;72.14;99417.41;5083379;28;20434;-54
2022/01/09 07:54:32;;;;;;;26.25;16.15;;;;;;;1.07;72.28;99426.88;5088401;28;20510;-53
2022/01/09 07:56:58;;;;;;;26.33;17.52;;;;;;;1.07;72.41;99413.94;5074182;28;20033;-50
2022/01/09 07:59:23;;;;;;;27.80;17.73;;;;;;;1.09;72.19;99421.72;5075430;28;20036;-54
2022/01/09 08:01:49;;;;;;;30.20;17.33;;;;;;;1.08;71.95;99415.69;5095348;28;20116;-53
2022/01/09 08:04:15;;;;;;;28.40;18.52;;;;;;;1.11;71.93;99420.00;5092333;28;20145;-55
2022/01/09 08:06:41;;;;;;;25.80;18.02;;;;;;;1.14;71.90;99420.84;5082446;28;20479;-53
2022/01/09 08:09:07;;;;;;;24.30;16.13;;;;;;;1.18;71.72;99417.41;5089357;28;20506;-55
2022/01/09 08:11:32;;;;;;;30.40;18.95;;;;;;;1.19;71.41;99429.47;5075699;28;20097;-56
2022/01/09 08:13:58;;;;;;;26.15;16.27;;;;;;;1.20;71.24;99422.59;5077274;28;20064;-55
2022/01/09 08:16:23;;;;;;;29.88;18.27;;;;;;;1.22;71.34;99421.72;5083508;28;20163;-55
2022/01/09 08:18:48;;;;;;;27.65;17.23;;;;;;;1.28;71.13;99423.47;5074831;28;20133;-55
2022/01/09 08:21:19;;;;;;;28.75;18.67;;;;;;;1.28;71.09;99420.88;5074833;28;20505;-55
2022/01/09 08:23:46;;;;;;;29.23;18.75;;;;;;;1.32;70.91;99420.03;5085145;28;20040;-55
2022/01/09 08:26:12;;;;;;;30.50;18.92;;;;;;;1.31;70.72;99420.88;5075540;28;20036;-55
2022/01/09 08:28:41;;;;;;;34.38;21.73;;;;;;;1.38;70.37;99416.56;5081856;28;20490;-54
2022/01/09 08:31:07;;;;;;;28.33;17.85;;;;;;;1.43;70.20;99423.44;5074726;28;20139;-54
2022/01/09 08:33:33;;;;;;;28.35;17.50;;;;;;;1.41;69.94;99420.00;5074629;28;20052;-55
2022/01/09 08:35:58;;;;;;;25.92;15.95;;;;;;;1.39;69.89;99429.50;5089647;28;20042;-55
2022/01/09 08:38:25;;;;;;;29.25;17.52;;;;;;;1.40;69.76;99430.38;5094955;28;20051;-54
2022/01/09 08:40:50;;;;;;;28.65;18.05;;;;;;;1.41;69.83;99435.53;5094754;28;20063;-54
2022/01/09 08:43:16;;;;;;;32.40;19.85;;;;;;;1.47;69.57;99426.91;5093887;28;20066;-53
2022/01/09 08:45:41;;;;;;;32.70;19.40;;;;;;;1.53;69.32;99429.50;5093175;28;20032;-52
2022/01/09 08:48:06;;;;;;;24.55;16.20;;;;;;;1.56;68.91;99424.34;5095129;28;20470;-53
2022/01/09 08:50:32;;;;;;;30.63;19.63;;;;;;;1.62;68.79;99431.22;5093745;28;20391;-54
2022/01/09 08:52:57;;;;;;;30.38;18.27;;;;;;;1.62;68.85;99429.50;5094748;28;20055;-54
2022/01/09 08:55:23;;;;;;;31.05;20.23;;;;;;;1.68;68.53;99419.16;5091426;28;20032;-54
2022/01/09 08:57:50;;;;;;;27.58;18.08;;;;;;;1.71;68.56;99424.28;5089514;28;20047;-51
2022/01/09 09:00:18;;;;;;;30.73;19.10;;;;;;;1.76;68.15;99421.72;5076312;28;20040;-53
2022/01/09 09:02:44;;;;;;;27.23;17.05;;;;;;;1.77;68.00;99420.84;5082146;28;20032;-54
2022/01/09 09:05:09;;;;;;;32.03;20.75;;;;;;;1.76;67.94;99426.91;5090539;28;20432;-54
2022/01/09 09:07:35;;;;;;;36.65;21.30;;;;;;;1.81;67.81;99425.16;5077605;28;20380;-54
2022/01/09 09:10:04;;;;;;;35.97;23.58;;;;;;;1.88;67.76;99426.03;5093140;28;20036;-50
2022/01/09 09:12:29;;;;;;;35.40;22.08;;;;;;;1.93;67.60;99422.56;5078422;28;20046;-54
2022/01/09 09:14:55;;;;;;;34.58;22.27;;;;;;;1.99;67.25;99424.25;5080362;28;20037;-51
2022/01/09 09:17:21;;;;;;;34.88;21.98;;;;;;;2.02;67.14;99418.22;5072991;28;20406;-53
2022/01/09 09:19:46;;;;;;;34.35;20.95;;;;;;;2.02;66.91;99415.63;5074342;28;20036;-54
2022/01/09 09:22:12;;;;;;;35.28;21.67;;;;;;;2.02;66.68;99407.84;5081931;28;20114;-55
2022/01/09 09:24:38;;;;;;;31.65;19.90;;;;;;;1.99;66.88;99403.53;5086924;28;20040;-55
2022/01/09 09:27:04;;;;;;;42.05;23.83;;;;;;;2.06;66.72;99400.06;5081761;28;20043;-55
2022/01/09 09:29:29;;;;;;;30.98;19.48;;;;;;;2.10;66.51;99401.78;5089275;28;20032;-54
2022/01/09 09:31:56;;;;;;;33.33;20.80;;;;;;;2.07;66.54;99404.38;5082025;28;20504;-54
2022/01/09 09:34:21;;;;;;;28.45;19.15;;;;;;;2.17;66.19;99406.06;5088611;28;20110;-53
2022/01/09 09:36:47;;;;;;;33.08;21.00;;;;;;;2.19;66.04;99406.94;5080904;28;20040;-53
2022/01/09 09:39:13;;;;;;;35.30;21.25;;;;;;;2.29;65.71;99406.91;5089482;28;20036;-54
2022/01/09 09:41:41;;;;;;;34.30;22.00;;;;;;;2.34;65.63;99403.41;5082083;28;20040;-57
2022/01/09 09:44:09;;;;;;;34.63;21.10;;;;;;;2.39;65.40;99408.56;5093048;28;20056;-53
2022/01/09 09:46:36;;;;;;;32.00;20.10;;;;;;;2.39;65.45;99403.41;5079718;28;20036;-53
2022/01/09 09:49:02;;;;;;;37.83;23.08;;;;;;;2.40;65.40;99406.00;5081845;28;20111;-55
2022/01/09 09:51:29;;;;;;;40.28;23.25;;;;;;;2.34;65.29;99395.63;5084398;28;20040;-55
2022/01/09 09:53:56;;;;;;;34.08;21.58;;;;;;;2.39;65.31;99395.63;5090404;28;20040;-57
2022/01/09 09:56:21;;;;;;;33.28;21.63;;;;;;;2.39;65.07;99387.84;5093639;28;20036;-54
2022/01/09 09:58:49;;;;;;;31.33;20.83;;;;;;;2.47;64.71;99391.25;5090573;28;20031;-54
2022/01/09 10:01:32;;;;;;;31.52;18.88;;;;;;;2.59;64.52;99392.94;5088127;28;20055;-54
2022/01/09 10:04:06;;;;;;;31.63;19.90;;;;;;;2.69;64.34;99392.88;5082248;28;20036;-54
2022/01/09 10:06:37;;;;;;;27.67;17.48;;;;;;;2.73;64.27;99393.72;5081594;28;20089;-54
2022/01/09 10:09:15;;;;;;;34.50;22.52;;;;;;;2.79;63.69;99395.41;5090298;28;20032;-56
2022/01/09 10:11:47;;;;;;;39.60;23.85;;;;;;;2.81;63.69;99391.09;5080538;28;20032;-56
2022/01/09 10:14:22;;;;;;;34.42;22.08;;;;;;;2.90;63.46;99393.63;5080178;28;20557;-54
2022/01/09 10:17:09;;;;;;;34.63;22.02;;;;;;;2.88;62.88;99385.00;5077426;28;20027;-54
2022/01/09 10:19:42;;;;;;;31.15;20.20;;;;;;;2.88;63.02;99375.47;5078399;28;20040;-51
2022/01/09 10:22:21;;;;;;;30.08;19.92;;;;;;;2.88;62.69;99372.03;5084552;28;20064;-54
2022/01/09 10:24:46;;;;;;;33.00;21.38;;;;;;;2.90;63.23;99375.47;5090543;28;20062;-56
2022/01/09 10:27:26;;;;;;;38.50;23.65;;;;;;;2.89;62.43;99378.94;5095068;28;20032;-55
2022/01/09 10:29:54;;;;;;;35.67;23.33;;;;;;;2.88;63.08;99378.06;5082164;28;20033;-55
2022/01/09 10:32:20;;;;;;;38.40;25.23;;;;;;;2.87;63.14;99367.69;5092698;28;20063;-54
2022/01/09 10:35:16;;;;;;;41.80;25.05;;;;;;;2.86;62.22;99377.22;5078992;28;20377;-55
2022/01/09 10:37:47;;;;;;;36.90;21.30;;;;;;;2.94;62.94;99377.16;5080277;28;20028;-53
2022/01/09 10:40:28;;;;;;;40.28;24.55;;;;;;;3.05;62.35;99377.94;5080163;28;20086;-55
2022/01/09 10:43:04;;;;;;;37.58;22.70;;;;;;;3.11;61.65;99369.25;5076349;28;20067;-56
2022/01/09 10:45:31;;;;;;;39.72;24.55;;;;;;;3.08;62.55;99369.28;5079135;28;20035;-53
2022/01/09 10:48:06;;;;;;;38.55;22.77;;;;;;;3.09;61.98;99365.81;5076996;28;20033;-55
2022/01/09 10:50:35;;;;;;;40.75;24.90;;;;;;;3.09;62.45;99361.47;5076577;28;20387;-56
2022/01/09 10:53:23;;;;;;;36.80;23.48;;;;;;;3.04;61.19;99358.06;5077346;28;20058;-53
2022/01/09 10:56:06;;;;;;;34.88;20.70;;;;;;;3.12;61.71;99360.59;5076606;28;20063;-53
2022/01/09 10:58:34;;;;;;;34.15;21.23;;;;;;;3.14;62.25;99359.72;5077893;28;20463;-56
2022/01/09 11:01:09;;;;;;;31.90;20.83;;;;;;;3.17;61.95;99364.03;5078798;28;20090;-53
2022/01/09 11:03:34;;;;;;;34.38;21.90;;;;;;;3.18;62.23;99365.75;5096285;28;20371;-53
2022/01/09 11:06:00;;;;;;;34.22;21.10;;;;;;;3.20;62.30;99359.66;5095134;28;20036;-52
2022/01/09 11:08:28;;;;;;;45.38;23.27;;;;;;;3.24;62.13;99363.09;5089795;28;20032;-53
2022/01/09 11:10:54;;;;;;;36.42;22.48;;;;;;;3.24;62.00;99351.88;5080190;28;20365;-55
2022/01/09 11:13:20;;;;;;;45.83;27.35;;;;;;;3.25;62.23;99354.44;5094404;28;20483;-53
2022/01/09 11:16:32;;;;;;;111.93;49.55;;;;;;;3.24;62.12;99364.84;5095983;28;20039;-54
2022/01/09 11:18:32;;;;;;;60.92;33.38;;;;;;;3.22;61.74;99352.72;5095221;28;20046;-55
2022/01/09 11:20:58;;;;;;;45.88;28.08;;;;;;;3.26;61.98;99368.28;5095486;28;20036;-52
2022/01/09 11:23:33;;;;;;;39.90;25.30;;;;;;;3.24;62.00;99357.06;5096229;28;20028;-54